Jerome, Michigan
Current Conditions -  °F | °C
As of 10:55 PM on Thursday 18 Dec 2014 (Local Time) from KJYM Reporting Station
Haze Haze  
Wind Chill: 22°   Ceiling: 500
Heat Index: 28°   Visibility: 3mi
Dew Point: 28°   Wind: 6mph
Humidity: 99%   Direction: 270°W
Pressure: 30.18"   Gusts: NA
Location:  42.03°N, 84.47°W
Report Text: KJYM 190355Z AUTO 27005KT 3SM BR OVC005 M02/M02 A3018 RMK AO2 T10231024
Loading
Personal Weather Stations






























Interactive Weather Map New forecast layout! Learn more

10-Day Weather Forecast

Advertisements
Track Severe Weather on mobile